sensor_id;sensor_type;location;lat;lon;timestamp;pressure;altitude;pressure_sealevel;temperature;humidity
34205;BME280;20471;49.680;20.074;2023-03-14T00:00:15;95901.10;;;9.32;50.78
34205;BME280;20471;49.680;20.074;2023-03-14T00:03:03;95893.52;;;9.32;50.80
34205;BME280;20471;49.680;20.074;2023-03-14T00:05:31;95893.09;;;9.31;50.69
34205;BME280;20471;49.680;20.074;2023-03-14T00:07:59;95898.55;;;9.32;50.61
34205;BME280;20471;49.680;20.074;2023-03-14T00:10:27;95895.77;;;9.32;50.56
34205;BME280;20471;49.680;20.074;2023-03-14T00:12:55;95884.61;;;9.32;50.65
34205;BME280;20471;49.680;20.074;2023-03-14T00:15:23;95871.92;;;9.33;50.60
34205;BME280;20471;49.680;20.074;2023-03-14T00:17:51;95850.95;;;9.34;50.53
34205;BME280;20471;49.680;20.074;2023-03-14T00:20:19;95841.48;;;9.35;50.43
34205;BME280;20471;49.680;20.074;2023-03-14T00:22:47;95849.98;;;9.37;50.34
34205;BME280;20471;49.680;20.074;2023-03-14T00:25:15;95841.80;;;9.40;50.27
34205;BME280;20471;49.680;20.074;2023-03-14T00:27:43;95844.52;;;9.41;50.35
34205;BME280;20471;49.680;20.074;2023-03-14T00:30:11;95837.21;;;9.39;50.43
34205;BME280;20471;49.680;20.074;2023-03-14T00:32:39;95829.04;;;9.38;50.41
34205;BME280;20471;49.680;20.074;2023-03-14T00:35:07;95814.70;;;9.34;50.56
34205;BME280;20471;49.680;20.074;2023-03-14T00:37:35;95811.05;;;9.32;50.43
34205;BME280;20471;49.680;20.074;2023-03-14T00:40:03;95802.28;;;9.30;50.47
34205;BME280;20471;49.680;20.074;2023-03-14T00:42:34;95794.41;;;9.29;50.49
34205;BME280;20471;49.680;20.074;2023-03-14T00:45:02;95795.49;;;9.30;50.42
34205;BME280;20471;49.680;20.074;2023-03-14T00:47:30;95796.44;;;9.31;50.39
34205;BME280;20471;49.680;20.074;2023-03-14T00:49:58;95786.03;;;9.33;50.32
34205;BME280;20471;49.680;20.074;2023-03-14T00:52:26;95781.09;;;9.34;50.36
34205;BME280;20471;49.680;20.074;2023-03-14T00:54:54;95783.13;;;9.36;50.44
34205;BME280;20471;49.680;20.074;2023-03-14T00:57:22;95779.77;;;9.38;50.41
34205;BME280;20471;49.680;20.074;2023-03-14T00:59:51;95771.91;;;9.39;50.39
34205;BME280;20471;49.680;20.074;2023-03-14T01:02:19;95771.54;;;9.39;50.34
34205;BME280;20471;49.680;20.074;2023-03-14T01:04:48;95769.49;;;9.36;50.35
34205;BME280;20471;49.680;20.074;2023-03-14T01:07:16;95758.80;;;9.34;50.48
34205;BME280;20471;49.680;20.074;2023-03-14T01:09:44;95745.25;;;9.33;50.59
34205;BME280;20471;49.680;20.074;2023-03-14T01:12:12;95737.16;;;9.28;50.68
34205;BME280;20471;49.680;20.074;2023-03-14T01:14:40;95737.00;;;9.23;50.72
34205;BME280;20471;49.680;20.074;2023-03-14T01:17:08;95734.41;;;9.16;50.79
34205;BME280;20471;49.680;20.074;2023-03-14T01:19:36;95730.24;;;9.09;50.89
34205;BME280;20471;49.680;20.074;2023-03-14T01:22:04;95730.00;;;9.03;51.06
34205;BME280;20471;49.680;20.074;2023-03-14T01:24:32;95722.50;;;8.96;51.27
34205;BME280;20471;49.680;20.074;2023-03-14T01:27:00;95719.85;;;8.87;51.48
34205;BME280;20471;49.680;20.074;2023-03-14T01:29:28;95718.14;;;8.79;51.73
34205;BME280;20471;49.680;20.074;2023-03-14T01:31:56;95717.35;;;8.68;51.89
34205;BME280;20471;49.680;20.074;2023-03-14T01:34:24;95713.33;;;8.57;52.06
34205;BME280;20471;49.680;20.074;2023-03-14T01:36:52;95706.13;;;8.47;52.19
34205;BME280;20471;49.680;20.074;2023-03-14T01:39:20;95698.42;;;8.38;52.36
34205;BME280;20471;49.680;20.074;2023-03-14T01:41:48;95692.90;;;8.29;52.65
34205;BME280;20471;49.680;20.074;2023-03-14T01:44:16;95687.61;;;8.20;52.84
34205;BME280;20471;49.680;20.074;2023-03-14T01:46:44;95684.85;;;8.14;53.03
34205;BME280;20471;49.680;20.074;2023-03-14T01:49:24;95681.20;;;8.12;53.17
34205;BME280;20471;49.680;20.074;2023-03-14T01:51:56;95675.77;;;8.12;53.24
34205;BME280;20471;49.680;20.074;2023-03-14T01:54:30;95664.33;;;8.15;53.25
34205;BME280;20471;49.680;20.074;2023-03-14T01:57:02;95658.06;;;8.22;53.27
34205;BME280;20471;49.680;20.074;2023-03-14T01:59:32;95648.17;;;8.29;53.32
34205;BME280;20471;49.680;20.074;2023-03-14T02:02:00;95646.23;;;8.36;53.27
34205;BME280;20471;49.680;20.074;2023-03-14T02:04:30;95641.74;;;8.41;53.37
34205;BME280;20471;49.680;20.074;2023-03-14T02:09:40;95637.34;;;8.38;53.48
34205;BME280;20471;49.680;20.074;2023-03-14T02:12:08;95636.35;;;8.31;53.68
34205;BME280;20471;49.680;20.074;2023-03-14T02:14:37;95626.88;;;8.20;53.72
34205;BME280;20471;49.680;20.074;2023-03-14T02:17:07;95627.19;;;8.12;53.90
34205;BME280;20471;49.680;20.074;2023-03-14T02:19:57;95623.17;;;8.02;54.09
34205;BME280;20471;49.680;20.074;2023-03-14T02:22:29;95615.48;;;7.93;54.43
34205;BME280;20471;49.680;20.074;2023-03-14T02:25:00;95605.11;;;7.86;54.56
34205;BME280;20471;49.680;20.074;2023-03-14T02:27:31;95601.27;;;7.79;54.52
34205;BME280;20471;49.680;20.074;2023-03-14T02:30:02;95596.58;;;7.76;54.71
34205;BME280;20471;49.680;20.074;2023-03-14T02:32:31;95590.70;;;7.75;54.88
34205;BME280;20471;49.680;20.074;2023-03-14T02:35:02;95586.16;;;7.71;54.95
34205;BME280;20471;49.680;20.074;2023-03-14T02:37:43;95585.14;;;7.64;55.00
34205;BME280;20471;49.680;20.074;2023-03-14T02:40:13;95583.02;;;7.56;55.15
34205;BME280;20471;49.680;20.074;2023-03-14T02:42:41;95585.06;;;7.49;55.35
34205;BME280;20471;49.680;20.074;2023-03-14T02:47:39;95581.87;;;7.33;55.74
34205;BME280;20471;49.680;20.074;2023-03-14T02:50:12;95583.91;;;7.23;55.91
34205;BME280;20471;49.680;20.074;2023-03-14T02:52:41;95578.14;;;7.07;56.12
34205;BME280;20471;49.680;20.074;2023-03-14T02:55:09;95565.56;;;7.00;56.34
34205;BME280;20471;49.680;20.074;2023-03-14T02:57:37;95559.19;;;6.88;56.47
34205;BME280;20471;49.680;20.074;2023-03-14T03:00:05;95556.55;;;6.78;56.65
34205;BME280;20471;49.680;20.074;2023-03-14T03:02:34;95561.36;;;6.69;56.82
34205;BME280;20471;49.680;20.074;2023-03-14T03:05:02;95562.39;;;6.57;57.15
34205;BME280;20471;49.680;20.074;2023-03-14T03:07:30;95556.36;;;6.47;57.35
34205;BME280;20471;49.680;20.074;2023-03-14T03:09:58;95554.61;;;6.39;57.69
34205;BME280;20471;49.680;20.074;2023-03-14T03:12:26;95547.42;;;6.26;57.90
34205;BME280;20471;49.680;20.074;2023-03-14T03:14:56;95548.13;;;6.18;58.05
34205;BME280;20471;49.680;20.074;2023-03-14T03:17:24;95542.54;;;6.10;58.32
34205;BME280;20471;49.680;20.074;2023-03-14T03:19:52;95538.41;;;6.08;58.50
34205;BME280;20471;49.680;20.074;2023-03-14T03:22:20;95536.33;;;6.04;58.64
34205;BME280;20471;49.680;20.074;2023-03-14T03:24:48;95532.30;;;5.94;58.87
34205;BME280;20471;49.680;20.074;2023-03-14T03:27:16;95525.06;;;5.87;59.13
34205;BME280;20471;49.680;20.074;2023-03-14T03:29:44;95525.80;;;5.83;59.24
34205;BME280;20471;49.680;20.074;2023-03-14T03:32:12;95524.78;;;5.76;59.38
34205;BME280;20471;49.680;20.074;2023-03-14T03:34:40;95515.71;;;5.74;59.63
34205;BME280;20471;49.680;20.074;2023-03-14T03:37:08;95511.88;;;5.74;59.74
34205;BME280;20471;49.680;20.074;2023-03-14T03:39:36;95505.75;;;5.73;59.83
34205;BME280;20471;49.680;20.074;2023-03-14T03:42:04;95505.21;;;5.68;59.95
34205;BME280;20471;49.680;20.074;2023-03-14T03:44:32;95496.82;;;5.58;60.01
34205;BME280;20471;49.680;20.074;2023-03-14T03:47:00;95491.63;;;5.57;60.28
34205;BME280;20471;49.680;20.074;2023-03-14T03:49:28;95483.00;;;5.60;60.28
34205;BME280;20471;49.680;20.074;2023-03-14T03:51:57;95493.21;;;5.63;60.30
34205;BME280;20471;49.680;20.074;2023-03-14T03:54:25;95498.86;;;5.66;60.23
34205;BME280;20471;49.680;20.074;2023-03-14T03:56:55;95496.10;;;5.67;60.29
34205;BME280;20471;49.680;20.074;2023-03-14T03:59:23;95498.45;;;5.67;60.32
34205;BME280;20471;49.680;20.074;2023-03-14T04:01:51;95499.74;;;5.67;60.37
34205;BME280;20471;49.680;20.074;2023-03-14T04:04:19;95500.16;;;5.69;60.38
34205;BME280;20471;49.680;20.074;2023-03-14T04:06:47;95496.92;;;5.70;60.29
34205;BME280;20471;49.680;20.074;2023-03-14T04:09:15;95495.59;;;5.72;60.25
34205;BME280;20471;49.680;20.074;2023-03-14T04:11:43;95497.89;;;5.74;60.24
34205;BME280;20471;49.680;20.074;2023-03-14T04:14:11;95509.04;;;5.74;60.30
34205;BME280;20471;49.680;20.074;2023-03-14T04:16:39;95501.21;;;5.74;60.29
34205;BME280;20471;49.680;20.074;2023-03-14T04:19:07;95495.43;;;5.76;60.34
34205;BME280;20471;49.680;20.074;2023-03-14T04:21:35;95493.74;;;5.79;60.36
34205;BME280;20471;49.680;20.074;2023-03-14T04:24:03;95496.05;;;5.81;60.33
34205;BME280;20471;49.680;20.074;2023-03-14T04:26:31;95496.10;;;5.83;60.39
34205;BME280;20471;49.680;20.074;2023-03-14T04:28:59;95488.70;;;5.85;60.41
34205;BME280;20471;49.680;20.074;2023-03-14T04:31:27;95484.48;;;5.87;60.44
34205;BME280;20471;49.680;20.074;2023-03-14T04:33:55;95477.40;;;5.88;60.37
34205;BME280;20471;49.680;20.074;2023-03-14T04:36:23;95472.67;;;5.86;60.37
34205;BME280;20471;49.680;20.074;2023-03-14T04:38:51;95471.60;;;5.83;60.42
34205;BME280;20471;49.680;20.074;2023-03-14T04:41:19;95471.10;;;5.89;60.31
34205;BME280;20471;49.680;20.074;2023-03-14T04:43:47;95473.83;;;6.05;60.21
34205;BME280;20471;49.680;20.074;2023-03-14T04:46:15;95471.50;;;6.26;60.18
34205;BME280;20471;49.680;20.074;2023-03-14T04:48:43;95467.84;;;6.44;60.07
34205;BME280;20471;49.680;20.074;2023-03-14T04:51:11;95463.55;;;6.63;59.88
34205;BME280;20471;49.680;20.074;2023-03-14T04:53:39;95461.12;;;6.73;59.72
34205;BME280;20471;49.680;20.074;2023-03-14T04:56:07;95455.23;;;6.76;59.61
34205;BME280;20471;49.680;20.074;2023-03-14T04:58:36;95457.45;;;6.78;59.47
34205;BME280;20471;49.680;20.074;2023-03-14T05:01:04;95470.02;;;6.78;59.40
34205;BME280;20471;49.680;20.074;2023-03-14T05:03:32;95473.24;;;6.78;59.45
34205;BME280;20471;49.680;20.074;2023-03-14T05:06:02;95462.64;;;6.81;59.37
34205;BME280;20471;49.680;20.074;2023-03-14T05:08:30;95454.41;;;6.84;59.37
34205;BME280;20471;49.680;20.074;2023-03-14T05:10:58;95461.31;;;6.92;59.42
34205;BME280;20471;49.680;20.074;2023-03-14T05:13:26;95468.64;;;6.98;59.43
34205;BME280;20471;49.680;20.074;2023-03-14T05:16:02;95468.04;;;7.03;59.39
34205;BME280;20471;49.680;20.074;2023-03-14T05:18:30;95463.67;;;7.11;59.27
34205;BME280;20471;49.680;20.074;2023-03-14T05:20:58;95448.72;;;7.24;59.26
34205;BME280;20471;49.680;20.074;2023-03-14T05:23:27;95450.89;;;7.36;59.22
34205;BME280;20471;49.680;20.074;2023-03-14T05:25:55;95457.23;;;7.46;59.34
34205;BME280;20471;49.680;20.074;2023-03-14T05:28:23;95459.42;;;7.54;59.32
34205;BME280;20471;49.680;20.074;2023-03-14T05:30:51;95465.91;;;7.59;59.15
34205;BME280;20471;49.680;20.074;2023-03-14T05:33:19;95470.19;;;7.62;59.12
34205;BME280;20471;49.680;20.074;2023-03-14T05:35:47;95462.45;;;7.64;59.13
34205;BME280;20471;49.680;20.074;2023-03-14T05:38:15;95450.41;;;7.67;58.96
34205;BME280;20471;49.680;20.074;2023-03-14T05:40:44;95445.36;;;7.73;59.00
34205;BME280;20471;49.680;20.074;2023-03-14T05:43:12;95443.90;;;7.81;59.02
34205;BME280;20471;49.680;20.074;2023-03-14T05:45:41;95447.33;;;7.89;58.75
34205;BME280;20471;49.680;20.074;2023-03-14T05:48:09;95445.44;;;7.98;58.70
34205;BME280;20471;49.680;20.074;2023-03-14T05:50:37;95442.66;;;8.05;58.66
34205;BME280;20471;49.680;20.074;2023-03-14T05:53:05;95440.52;;;8.12;58.53
34205;BME280;20471;49.680;20.074;2023-03-14T05:55:33;95439.77;;;8.18;58.45
34205;BME280;20471;49.680;20.074;2023-03-14T05:58:01;95435.44;;;8.23;58.52
34205;BME280;20471;49.680;20.074;2023-03-14T06:00:29;95435.73;;;8.28;58.34
34205;BME280;20471;49.680;20.074;2023-03-14T06:02:57;95437.12;;;8.33;58.37
34205;BME280;20471;49.680;20.074;2023-03-14T06:05:25;95442.05;;;8.36;58.30
34205;BME280;20471;49.680;20.074;2023-03-14T06:07:53;95441.30;;;8.39;58.23
34205;BME280;20471;49.680;20.074;2023-03-14T06:10:21;95445.46;;;8.43;58.40
34205;BME280;20471;49.680;20.074;2023-03-14T06:12:49;95443.98;;;8.44;58.60
34205;BME280;20471;49.680;20.074;2023-03-14T06:15:17;95446.91;;;8.47;58.75
34205;BME280;20471;49.680;20.074;2023-03-14T06:17:45;95445.29;;;8.49;58.83
34205;BME280;20471;49.680;20.074;2023-03-14T06:20:14;95445.27;;;8.52;58.86
34205;BME280;20471;49.680;20.074;2023-03-14T06:22:42;95439.91;;;8.52;59.10
34205;BME280;20471;49.680;20.074;2023-03-14T06:25:10;95435.61;;;8.56;58.92
34205;BME280;20471;49.680;20.074;2023-03-14T06:27:38;95427.95;;;8.62;58.80
34205;BME280;20471;49.680;20.074;2023-03-14T06:30:06;95423.17;;;8.71;58.67
34205;BME280;20471;49.680;20.074;2023-03-14T06:32:34;95427.17;;;8.79;58.70
34205;BME280;20471;49.680;20.074;2023-03-14T06:35:02;95428.71;;;8.86;58.64
34205;BME280;20471;49.680;20.074;2023-03-14T06:37:30;95426.07;;;8.93;58.81
34205;BME280;20471;49.680;20.074;2023-03-14T06:39:58;95424.10;;;8.99;58.90
34205;BME280;20471;49.680;20.074;2023-03-14T06:42:26;95416.80;;;9.05;58.87
34205;BME280;20471;49.680;20.074;2023-03-14T06:44:54;95412.10;;;9.12;58.72
34205;BME280;20471;49.680;20.074;2023-03-14T06:47:22;95417.33;;;9.21;58.64
34205;BME280;20471;49.680;20.074;2023-03-14T06:49:50;95412.80;;;9.30;58.32
34205;BME280;20471;49.680;20.074;2023-03-14T06:52:18;95409.91;;;9.41;58.06
34205;BME280;20471;49.680;20.074;2023-03-14T06:54:46;95406.76;;;9.53;57.81
34205;BME280;20471;49.680;20.074;2023-03-14T06:57:14;95406.77;;;9.64;57.62
34205;BME280;20471;49.680;20.074;2023-03-14T06:59:45;95414.06;;;9.77;57.48
34205;BME280;20471;49.680;20.074;2023-03-14T07:02:13;95413.91;;;9.89;57.31
34205;BME280;20471;49.680;20.074;2023-03-14T07:04:41;95408.42;;;10.01;56.99
34205;BME280;20471;49.680;20.074;2023-03-14T07:07:09;95401.20;;;10.14;56.84
34205;BME280;20471;49.680;20.074;2023-03-14T07:09:37;95397.82;;;10.27;56.57
34205;BME280;20471;49.680;20.074;2023-03-14T07:12:05;95397.76;;;10.39;56.35
34205;BME280;20471;49.680;20.074;2023-03-14T07:14:33;95402.84;;;10.50;56.01
34205;BME280;20471;49.680;20.074;2023-03-14T07:17:01;95397.85;;;10.62;55.79
34205;BME280;20471;49.680;20.074;2023-03-14T07:19:30;95389.77;;;10.72;55.43
34205;BME280;20471;49.680;20.074;2023-03-14T07:21:58;95389.30;;;10.82;55.16
34205;BME280;20471;49.680;20.074;2023-03-14T07:24:26;95397.28;;;10.91;54.80
34205;BME280;20471;49.680;20.074;2023-03-14T07:26:54;95391.36;;;11.03;54.52
34205;BME280;20471;49.680;20.074;2023-03-14T07:29:22;95382.45;;;11.15;54.15
34205;BME280;20471;49.680;20.074;2023-03-14T07:31:50;95389.89;;;11.28;53.92
34205;BME280;20471;49.680;20.074;2023-03-14T07:34:18;95402.13;;;11.38;53.66
34205;BME280;20471;49.680;20.074;2023-03-14T07:36:46;95405.95;;;11.50;53.57
34205;BME280;20471;49.680;20.074;2023-03-14T07:39:14;95401.56;;;11.64;53.31
34205;BME280;20471;49.680;20.074;2023-03-14T07:41:42;95405.00;;;11.88;53.15
34205;BME280;20471;49.680;20.074;2023-03-14T07:44:10;95395.19;;;12.20;52.67
34205;BME280;20471;49.680;20.074;2023-03-14T07:46:38;95394.11;;;12.40;52.30
34205;BME280;20471;49.680;20.074;2023-03-14T07:49:06;95387.68;;;12.68;52.07
34205;BME280;20471;49.680;20.074;2023-03-14T07:51:34;95380.96;;;12.99;51.74
34205;BME280;20471;49.680;20.074;2023-03-14T07:54:02;95385.84;;;13.23;51.56
34205;BME280;20471;49.680;20.074;2023-03-14T07:56:30;95389.81;;;13.36;51.07
34205;BME280;20471;49.680;20.074;2023-03-14T07:58:58;95395.68;;;13.43;50.17
34205;BME280;20471;49.680;20.074;2023-03-14T08:01:27;95394.87;;;13.42;50.47
34205;BME280;20471;49.680;20.074;2023-03-14T08:03:55;95391.39;;;13.43;50.65
34205;BME280;20471;49.680;20.074;2023-03-14T08:06:23;95402.63;;;13.41;50.28
34205;BME280;20471;49.680;20.074;2023-03-14T08:08:51;95404.21;;;13.38;50.23
34205;BME280;20471;49.680;20.074;2023-03-14T08:11:19;95401.07;;;13.37;49.97
34205;BME280;20471;49.680;20.074;2023-03-14T08:13:47;95405.64;;;13.33;49.75
34205;BME280;20471;49.680;20.074;2023-03-14T08:16:18;95407.96;;;13.29;49.32
34205;BME280;20471;49.680;20.074;2023-03-14T08:18:46;95418.73;;;13.27;49.26
34205;BME280;20471;49.680;20.074;2023-03-14T08:21:14;95426.33;;;13.25;49.26
34205;BME280;20471;49.680;20.074;2023-03-14T08:23:42;95433.91;;;13.25;49.05
34205;BME280;20471;49.680;20.074;2023-03-14T08:26:10;95431.81;;;13.32;48.96
34205;BME280;20471;49.680;20.074;2023-03-14T08:28:39;95427.59;;;13.45;48.61
34205;BME280;20471;49.680;20.074;2023-03-14T08:31:07;95431.63;;;13.54;48.28
34205;BME280;20471;49.680;20.074;2023-03-14T08:33:36;95434.96;;;13.62;48.12
34205;BME280;20471;49.680;20.074;2023-03-14T08:36:04;95422.84;;;13.66;47.71
34205;BME280;20471;49.680;20.074;2023-03-14T08:38:32;95424.50;;;13.71;47.73
34205;BME280;20471;49.680;20.074;2023-03-14T08:41:00;95421.65;;;13.76;47.79
34205;BME280;20471;49.680;20.074;2023-03-14T08:43:30;95440.83;;;13.80;47.32
34205;BME280;20471;49.680;20.074;2023-03-14T08:45:59;95431.23;;;13.81;47.04
34205;BME280;20471;49.680;20.074;2023-03-14T08:48:28;95430.60;;;13.86;47.30
34205;BME280;20471;49.680;20.074;2023-03-14T08:51:01;95435.81;;;13.94;47.19
34205;BME280;20471;49.680;20.074;2023-03-14T08:53:31;95437.73;;;14.01;46.82
34205;BME280;20471;49.680;20.074;2023-03-14T08:56:00;95439.11;;;14.06;46.85
34205;BME280;20471;49.680;20.074;2023-03-14T08:58:28;95449.84;;;14.11;46.74
34205;BME280;20471;49.680;20.074;2023-03-14T09:00:56;95447.19;;;14.09;46.11
34205;BME280;20471;49.680;20.074;2023-03-14T09:03:24;95447.30;;;13.98;45.85
34205;BME280;20471;49.680;20.074;2023-03-14T09:05:53;95444.05;;;13.88;46.02
34205;BME280;20471;49.680;20.074;2023-03-14T09:08:21;95451.02;;;13.83;46.18
34205;BME280;20471;49.680;20.074;2023-03-14T09:10:49;95458.64;;;13.77;46.18
34205;BME280;20471;49.680;20.074;2023-03-14T09:13:17;95457.15;;;13.69;46.02
34205;BME280;20471;49.680;20.074;2023-03-14T09:15:49;95452.20;;;13.61;46.03
34205;BME280;20471;49.680;20.074;2023-03-14T09:18:17;95453.73;;;13.54;46.16
34205;BME280;20471;49.680;20.074;2023-03-14T09:20:45;95450.82;;;13.54;46.66
34205;BME280;20471;49.680;20.074;2023-03-14T09:23:13;95446.98;;;13.64;47.05
34205;BME280;20471;49.680;20.074;2023-03-14T09:25:42;95450.75;;;13.79;47.17
34205;BME280;20471;49.680;20.074;2023-03-14T09:28:10;95454.00;;;13.91;46.87
34205;BME280;20471;49.680;20.074;2023-03-14T09:30:38;95446.67;;;13.90;46.32
34205;BME280;20471;49.680;20.074;2023-03-14T09:33:06;95448.66;;;13.88;46.45
34205;BME280;20471;49.680;20.074;2023-03-14T09:35:34;95458.54;;;13.87;46.44
34205;BME280;20471;49.680;20.074;2023-03-14T09:38:03;95456.11;;;13.83;46.16
34205;BME280;20471;49.680;20.074;2023-03-14T09:40:33;95460.68;;;13.78;45.88
34205;BME280;20471;49.680;20.074;2023-03-14T09:43:02;95459.54;;;13.79;45.95
34205;BME280;20471;49.680;20.074;2023-03-14T09:45:37;95445.45;;;13.88;46.06
34205;BME280;20471;49.680;20.074;2023-03-14T09:48:16;95453.51;;;14.12;46.32
34205;BME280;20471;49.680;20.074;2023-03-14T09:50:51;95456.78;;;14.45;46.40
34205;BME280;20471;49.680;20.074;2023-03-14T09:53:23;95454.52;;;14.77;46.12
34205;BME280;20471;49.680;20.074;2023-03-14T09:55:51;95454.60;;;15.10;45.84
34205;BME280;20471;49.680;20.074;2023-03-14T09:58:22;95451.66;;;15.35;45.27
34205;BME280;20471;49.680;20.074;2023-03-14T10:00:52;95441.89;;;15.56;44.97
34205;BME280;20471;49.680;20.074;2023-03-14T10:03:33;95443.98;;;15.72;44.48
34205;BME280;20471;49.680;20.074;2023-03-14T10:06:02;95454.32;;;15.71;43.93
34205;BME280;20471;49.680;20.074;2023-03-14T10:08:31;95438.74;;;15.69;44.01
34205;BME280;20471;49.680;20.074;2023-03-14T10:10:59;95444.27;;;15.67;43.80
34205;BME280;20471;49.680;20.074;2023-03-14T10:13:29;95443.89;;;15.56;43.49
34205;BME280;20471;49.680;20.074;2023-03-14T10:16:01;95453.87;;;15.43;43.11
34205;BME280;20471;49.680;20.074;2023-03-14T10:18:30;95460.81;;;15.40;43.48
34205;BME280;20471;49.680;20.074;2023-03-14T10:23:32;95472.16;;;15.58;43.53
34205;BME280;20471;49.680;20.074;2023-03-14T10:28:52;95463.59;;;15.55;43.10
34205;BME280;20471;49.680;20.074;2023-03-14T10:31:24;95458.90;;;15.66;43.23
34205;BME280;20471;49.680;20.074;2023-03-14T10:34:02;95461.58;;;15.75;43.19
34205;BME280;20471;49.680;20.074;2023-03-14T10:36:32;95459.05;;;15.77;43.12
34205;BME280;20471;49.680;20.074;2023-03-14T10:41:48;95457.34;;;15.87;43.26
34205;BME280;20471;49.680;20.074;2023-03-14T10:44:20;95454.35;;;15.91;43.28
34205;BME280;20471;49.680;20.074;2023-03-14T10:47:23;95456.73;;;15.83;43.03
34205;BME280;20471;49.680;20.074;2023-03-14T10:49:43;95459.47;;;15.73;43.10
34205;BME280;20471;49.680;20.074;2023-03-14T10:52:24;95456.62;;;15.66;42.78
34205;BME280;20471;49.680;20.074;2023-03-14T10:54:59;95451.42;;;15.53;42.75
34205;BME280;20471;49.680;20.074;2023-03-14T10:57:28;95454.65;;;15.50;43.03
34205;BME280;20471;49.680;20.074;2023-03-14T10:59:56;95449.22;;;15.49;43.05
34205;BME280;20471;49.680;20.074;2023-03-14T11:02:37;95450.41;;;15.46;43.26
34205;BME280;20471;49.680;20.074;2023-03-14T11:05:19;95447.98;;;15.39;43.23
34205;BME280;20471;49.680;20.074;2023-03-14T11:07:51;95444.23;;;15.30;43.43
34205;BME280;20471;49.680;20.074;2023-03-14T11:10:33;95439.91;;;15.27;43.55
34205;BME280;20471;49.680;20.074;2023-03-14T11:21:52;95432.52;;;15.12;43.86
34205;BME280;20471;49.680;20.074;2023-03-14T11:24:33;95440.59;;;15.24;43.60
34205;BME280;20471;49.680;20.074;2023-03-14T11:27:22;95425.44;;;15.38;43.76
34205;BME280;20471;49.680;20.074;2023-03-14T11:29:58;95421.75;;;15.62;43.94
34205;BME280;20471;49.680;20.074;2023-03-14T11:37:52;95409.70;;;16.19;42.99
34205;BME280;20471;49.680;20.074;2023-03-14T11:40:24;95414.80;;;16.39;43.15
34205;BME280;20471;49.680;20.074;2023-03-14T11:43:06;95415.41;;;16.59;42.91
34205;BME280;20471;49.680;20.074;2023-03-14T11:45:38;95416.74;;;16.68;42.58
34205;BME280;20471;49.680;20.074;2023-03-14T11:51:23;95419.52;;;17.00;42.46
34205;BME280;20471;49.680;20.074;2023-03-14T11:56:57;95418.39;;;17.35;41.65
34205;BME280;20471;49.680;20.074;2023-03-14T12:02:00;95421.25;;;17.19;41.19
34205;BME280;20471;49.680;20.074;2023-03-14T12:07:01;95429.90;;;17.00;41.25
34205;BME280;20471;49.680;20.074;2023-03-14T12:09:30;95434.29;;;16.78;41.12
34205;BME280;20471;49.680;20.074;2023-03-14T12:12:00;95441.11;;;16.56;41.05
34205;BME280;20471;49.680;20.074;2023-03-14T12:14:36;95430.98;;;16.32;41.16
34205;BME280;20471;49.680;20.074;2023-03-14T12:19:45;95417.92;;;15.84;41.49
34205;BME280;20471;49.680;20.074;2023-03-14T12:22:24;95416.48;;;15.74;41.89
34205;BME280;20471;49.680;20.074;2023-03-14T12:27:49;95409.83;;;15.72;42.15
34205;BME280;20471;49.680;20.074;2023-03-14T12:30:37;95407.64;;;15.64;42.06
34205;BME280;20471;49.680;20.074;2023-03-14T12:43:29;95409.23;;;15.54;42.90
34205;BME280;20471;49.680;20.074;2023-03-14T12:48:40;95412.09;;;15.60;42.79
34205;BME280;20471;49.680;20.074;2023-03-14T12:51:13;95415.08;;;15.56;42.75
34205;BME280;20471;49.680;20.074;2023-03-14T12:59:03;95415.48;;;15.34;43.25
34205;BME280;20471;49.680;20.074;2023-03-14T13:01:33;95415.66;;;15.23;43.22
34205;BME280;20471;49.680;20.074;2023-03-14T13:04:07;95414.49;;;15.15;43.35
34205;BME280;20471;49.680;20.074;2023-03-14T13:06:47;95422.96;;;15.10;43.65
34205;BME280;20471;49.680;20.074;2023-03-14T13:12:02;95428.36;;;14.92;43.60
34205;BME280;20471;49.680;20.074;2023-03-14T13:14:31;95427.81;;;14.82;43.77
34205;BME280;20471;49.680;20.074;2023-03-14T13:16:59;95430.15;;;14.69;43.89
34205;BME280;20471;49.680;20.074;2023-03-14T13:19:28;95432.83;;;14.54;44.07
34205;BME280;20471;49.680;20.074;2023-03-14T13:22:04;95441.72;;;14.41;44.34
34205;BME280;20471;49.680;20.074;2023-03-14T13:24:33;95441.83;;;14.30;44.65
34205;BME280;20471;49.680;20.074;2023-03-14T13:27:02;95441.67;;;14.23;44.89
34205;BME280;20471;49.680;20.074;2023-03-14T13:29:30;95445.51;;;14.16;45.23
34205;BME280;20471;49.680;20.074;2023-03-14T13:32:00;95445.41;;;14.06;45.40
34205;BME280;20471;49.680;20.074;2023-03-14T13:34:32;95444.90;;;13.99;45.48
34205;BME280;20471;49.680;20.074;2023-03-14T13:37:01;95457.00;;;13.89;45.81
34205;BME280;20471;49.680;20.074;2023-03-14T13:39:29;95457.96;;;13.80;46.10
34205;BME280;20471;49.680;20.074;2023-03-14T13:42:00;95462.72;;;13.74;46.29
34205;BME280;20471;49.680;20.074;2023-03-14T13:44:32;95462.95;;;13.69;46.49
34205;BME280;20471;49.680;20.074;2023-03-14T13:47:02;95465.70;;;13.64;46.79
34205;BME280;20471;49.680;20.074;2023-03-14T13:49:33;95467.39;;;13.57;46.80
34205;BME280;20471;49.680;20.074;2023-03-14T13:52:04;95466.94;;;13.49;47.05
34205;BME280;20471;49.680;20.074;2023-03-14T13:54:48;95469.45;;;13.41;47.24
34205;BME280;20471;49.680;20.074;2023-03-14T13:57:47;95461.23;;;13.33;47.54
34205;BME280;20471;49.680;20.074;2023-03-14T14:00:22;95456.54;;;13.27;47.77
34205;BME280;20471;49.680;20.074;2023-03-14T14:02:53;95448.70;;;13.21;48.12
34205;BME280;20471;49.680;20.074;2023-03-14T14:05:22;95444.37;;;13.16;48.25
34205;BME280;20471;49.680;20.074;2023-03-14T14:07:51;95431.20;;;13.10;48.67
34205;BME280;20471;49.680;20.074;2023-03-14T14:10:19;95422.05;;;13.07;48.88
34205;BME280;20471;49.680;20.074;2023-03-14T14:13:06;95414.90;;;13.05;49.19